Time;durP1;ratioP1;P1;durP2;ratioP2;P2;SDS_P1;SDS_P2;PMS_P1;PMS_P2;Temp;Humidity;BMP_temperature;BMP_pressure;BME280_temperature;BME280_humidity;BME280_pressure;Samples;Min_cycle;Max_cycle;Signal;HPM_P1;HPM_P2
2022/07/13 00:00:37;;;;;;;2.9;1.9;;;;;;;;;;;;;
2022/07/13 00:03:06;;;;;;;2;1.8;;;;;;;;;;;;;
2022/07/13 00:05:31;;;;;;;2;1.9;;;;;;;;;;;;;
2022/07/13 00:07:56;;;;;;;3;1.9;;;;;;;;;;;;;
2022/07/13 00:10:21;;;;;;;1.9;1.7;;;;;;;;;;;;;
2022/07/13 00:12:47;;;;;;;2.2;1.8;;;;;;;;;;;;;
2022/07/13 00:15:12;;;;;;;2.2;2;;;;;;;;;;;;;
2022/07/13 00:17:39;;;;;;;3.4;2;;;;;;;;;;;;;
2022/07/13 00:20:04;;;;;;;2.7;1.7;;;;;;;;;;;;;
2022/07/13 00:22:31;;;;;;;2.5;2;;;;;;;;;;;;;
2022/07/13 00:24:56;;;;;;;2.7;1.6;;;;;;;;;;;;;
2022/07/13 00:27:21;;;;;;;2.5;2;;;;;;;;;;;;;
2022/07/13 00:29:46;;;;;;;2.8;1.9;;;;;;;;;;;;;
2022/07/13 00:32:11;;;;;;;1.9;1.6;;;;;;;;;;;;;
2022/07/13 00:34:37;;;;;;;5.3;1.9;;;;;;;;;;;;;
2022/07/13 00:37:05;;;;;;;2.9;1.6;;;;;;;;;;;;;
2022/07/13 00:39:30;;;;;;;2;1.7;;;;;;;;;;;;;
2022/07/13 00:41:55;;;;;;;2.1;1.9;;;;;;;;;;;;;
2022/07/13 00:44:20;;;;;;;2.3;1.8;;;;;;;;;;;;;
2022/07/13 00:46:48;;;;;;;2.2;2;;;;;;;;;;;;;
2022/07/13 00:49:13;;;;;;;2.1;1.9;;;;;;;;;;;;;
2022/07/13 00:51:39;;;;;;;2;1.8;;;;;;;;;;;;;
2022/07/13 00:54:03;;;;;;;1.8;1.7;;;;;;;;;;;;;
2022/07/13 00:56:30;;;;;;;2.2;2;;;;;;;;;;;;;
2022/07/13 00:58:55;;;;;;;2;1.8;;;;;;;;;;;;;
2022/07/13 01:01:22;;;;;;;2.2;1.8;;;;;;;;;;;;;
2022/07/13 01:03:48;;;;;;;2.1;1.8;;;;;;;;;;;;;
2022/07/13 01:06:14;;;;;;;3.5;1.8;;;;;;;;;;;;;
2022/07/13 01:08:39;;;;;;;2.1;1.8;;;;;;;;;;;;;
2022/07/13 01:11:05;;;;;;;2.4;1.8;;;;;;;;;;;;;
2022/07/13 01:13:30;;;;;;;1.8;1.7;;;;;;;;;;;;;
2022/07/13 01:15:56;;;;;;;3.6;1.8;;;;;;;;;;;;;
2022/07/13 01:18:22;;;;;;;3.6;1.8;;;;;;;;;;;;;
2022/07/13 01:20:48;;;;;;;3.4;1.6;;;;;;;;;;;;;
2022/07/13 01:23:14;;;;;;;2.2;1.8;;;;;;;;;;;;;
2022/07/13 01:25:38;;;;;;;3.4;1.9;;;;;;;;;;;;;
2022/07/13 01:28:04;;;;;;;3.2;2.2;;;;;;;;;;;;;
2022/07/13 01:30:29;;;;;;;1.9;1.7;;;;;;;;;;;;;
2022/07/13 01:32:54;;;;;;;2.1;1.9;;;;;;;;;;;;;
2022/07/13 01:35:19;;;;;;;1.7;1.6;;;;;;;;;;;;;
2022/07/13 01:37:46;;;;;;;2.2;2;;;;;;;;;;;;;
2022/07/13 01:40:11;;;;;;;2.2;2;;;;;;;;;;;;;
2022/07/13 01:42:38;;;;;;;2.8;2;;;;;;;;;;;;;
2022/07/13 01:45:03;;;;;;;2.4;2;;;;;;;;;;;;;
2022/07/13 01:47:31;;;;;;;2.8;1.8;;;;;;;;;;;;;
2022/07/13 01:49:56;;;;;;;1.8;1.7;;;;;;;;;;;;;
2022/07/13 01:52:22;;;;;;;2;1.8;;;;;;;;;;;;;
2022/07/13 01:54:47;;;;;;;2.5;1.8;;;;;;;;;;;;;
2022/07/13 01:57:12;;;;;;;2;1.9;;;;;;;;;;;;;
2022/07/13 01:59:37;;;;;;;2.8;1.9;;;;;;;;;;;;;
2022/07/13 02:02:03;;;;;;;2.2;1.9;;;;;;;;;;;;;
2022/07/13 02:04:28;;;;;;;4;2.1;;;;;;;;;;;;;
2022/07/13 02:06:55;;;;;;;2.7;2;;;;;;;;;;;;;
2022/07/13 02:09:20;;;;;;;2.9;1.9;;;;;;;;;;;;;
2022/07/13 02:11:47;;;;;;;4.7;1.9;;;;;;;;;;;;;
2022/07/13 02:14:12;;;;;;;3.2;2;;;;;;;;;;;;;
2022/07/13 02:16:38;;;;;;;2.1;1.9;;;;;;;;;;;;;
2022/07/13 02:19:04;;;;;;;2.5;2;;;;;;;;;;;;;
2022/07/13 02:21:30;;;;;;;2.3;1.8;;;;;;;;;;;;;
2022/07/13 02:23:55;;;;;;;2.2;2.1;;;;;;;;;;;;;
2022/07/13 02:26:20;;;;;;;2.7;2;;;;;;;;;;;;;
2022/07/13 02:28:45;;;;;;;2.2;2;;;;;;;;;;;;;
2022/07/13 02:31:13;;;;;;;2.7;1.9;;;;;;;;;;;;;
2022/07/13 02:33:37;;;;;;;2.8;1.9;;;;;;;;;;;;;
2022/07/13 02:36:02;;;;;;;2.4;2.1;;;;;;;;;;;;;
2022/07/13 02:38:27;;;;;;;2.2;2;;;;;;;;;;;;;
2022/07/13 03:52:02;;;;;;;4.3;2.5;;;;;;;;;;;;;
2022/07/13 03:54:31;;;;;;;5.4;2.4;;;;;;;;;;;;;
2022/07/13 03:56:56;;;;;;;4.8;2.1;;;;;;;;;;;;;
2022/07/13 03:59:22;;;;;;;4.2;2.4;;;;;;;;;;;;;
2022/07/13 04:02:39;;;;;;;2.5;1.8;;;;;;;13.71;87.1123;946.1553;;;;
2022/07/13 04:05:04;;;;;;;3.3;2.6;;;;;;;13.78;86.69922;946.196;;;;
2022/07/13 04:07:31;;;;;;;3.2;2.4;;;;;;;13.68;87.1416;946.2111;;;;
2022/07/13 04:10:00;;;;;;;3;1.9;;;;;;;13.63;87.23242;946.2049;;;;
2022/07/13 04:12:26;;;;;;;2.7;2.3;;;;;;;13.55;87.68945;946.1799;;;;
2022/07/13 04:14:55;;;;;;;3.3;2;;;;;;;13.47;87.90234;946.0966;;;;
2022/07/13 04:17:20;;;;;;;3.8;2;;;;;;;13.4;88.31543;946.0795;;;;
2022/07/13 04:19:46;;;;;;;3.1;1.9;;;;;;;13.49;87.89648;946.0976;;;;
2022/07/13 04:22:15;;;;;;;2.5;2;;;;;;;13.44;88.24219;946.1563;;;;
2022/07/13 04:24:40;;;;;;;2.1;1.9;;;;;;;13.45;88.4043;946.1755;;;;
2022/07/13 04:27:07;;;;;;;3.7;2.5;;;;;;;13.49;88.57324;946.1688;;;;
2022/07/13 04:29:37;;;;;;;4;2;;;;;;;13.55;88.04688;946.1895;;;;
2022/07/13 04:32:02;;;;;;;4;2.3;;;;;;;13.47;88.32813;946.1693;;;;
2022/07/13 04:34:30;;;;;;;6.4;3.8;;;;;;;13.51;88.15137;946.1753;;;;
2022/07/13 04:36:55;;;;;;;3.4;2.5;;;;;;;13.45;88.33594;946.1595;;;;
2022/07/13 04:39:24;;;;;;;3;2;;;;;;;13.39;88.61035;946.144;;;;
2022/07/13 04:41:49;;;;;;;3.5;2.3;;;;;;;13.39;88.70215;946.0625;;;;
2022/07/13 04:44:17;;;;;;;2.4;2;;;;;;;13.41;88.66211;946.1012;;;;
2022/07/13 04:46:42;;;;;;;4;2.5;;;;;;;13.46;88.37207;945.9956;;;;
2022/07/13 04:49:10;;;;;;;5;2.7;;;;;;;13.44;88.64453;946.0034;;;;
2022/07/13 04:51:35;;;;;;;6;3.2;;;;;;;13.53;87.92871;945.9908;;;;
2022/07/13 04:54:04;;;;;;;3.9;2.6;;;;;;;13.48;87.9043;946.0286;;;;
2022/07/13 04:56:29;;;;;;;4.4;2.6;;;;;;;13.42;88.33008;945.9928;;;;
2022/07/13 04:58:56;;;;;;;3.4;2.5;;;;;;;13.47;88.14258;945.9476;;;;
2022/07/13 05:01:22;;;;;;;2.6;2.4;;;;;;;13.6;87.78027;945.9483;;;;
2022/07/13 05:03:49;;;;;;;2.7;2.2;;;;;;;13.76;87.05273;945.9333;;;;
2022/07/13 05:06:14;;;;;;;5.3;2.6;;;;;;;13.89;86.27344;945.914;;;;
2022/07/13 05:08:42;;;;;;;3.9;2.7;;;;;;;13.97;85.79492;945.8434;;;;
2022/07/13 05:11:08;;;;;;;2.3;2.1;;;;;;;14.2;86.59961;945.8336;;;;
2022/07/13 05:13:34;;;;;;;3.6;2.1;;;;;;;15.53;82.91309;945.7399;;;;
2022/07/13 05:16:03;;;;;;;1.8;1.6;;;;;;;16.83;74.4502;945.7111;;;;
2022/07/13 05:18:33;;;;;;;2;1.7;;;;;;;17.43;72.96094;945.7137;;;;
2022/07/13 05:21:02;;;;;;;1.4;1.3;;;;;;;18.14;67.74805;945.6644;;;;
2022/07/13 05:23:27;;;;;;;2.7;1.4;;;;;;;19.07;65.23535;945.5999;;;;
2022/07/13 05:25:55;;;;;;;2.2;1.4;;;;;;;20.2;61.51563;945.5522;;;;
2022/07/13 05:28:20;;;;;;;1.5;1.4;;;;;;;20.89;58.91113;945.4219;;;;
2022/07/13 05:30:46;;;;;;;1.7;1.4;;;;;;;21.54;56.88965;945.397;;;;
2022/07/13 05:33:11;;;;;;;1.3;1.2;;;;;;;22.17;53.91113;945.3855;;;;
2022/07/13 05:35:39;;;;;;;3.5;1.5;;;;;;;22.29;53.84277;945.2969;;;;
2022/07/13 05:38:04;;;;;;;1.5;1.4;;;;;;;22.89;52.27246;945.2556;;;;
2022/07/13 05:40:35;;;;;;;1.5;1.1;;;;;;;23.38;50.24805;945.2051;;;;
2022/07/13 05:43:07;;;;;;;1.2;1.1;;;;;;;23.22;50.61816;945.1517;;;;
2022/07/13 05:45:38;;;;;;;1.2;1.1;;;;;;;23.82;48.97949;945.0898;;;;
2022/07/13 05:48:09;;;;;;;1.9;1.1;;;;;;;23.98;49.20898;945.0508;;;;
2022/07/13 05:50:41;;;;;;;1.7;1;;;;;;;24.26;47.7793;944.9998;;;;
2022/07/13 05:53:10;;;;;;;1.3;1.2;;;;;;;23.47;49.50586;944.9906;;;;
2022/07/13 05:55:41;;;;;;;1.7;1.1;;;;;;;24.33;48.10547;944.9517;;;;
2022/07/13 05:58:06;;;;;;;1.3;1.1;;;;;;;25.69;45.95898;944.9283;;;;
2022/07/13 06:00:33;;;;;;;1;1;;;;;;;26.74;42.62012;944.9617;;;;
2022/07/13 06:02:58;;;;;;;2.2;1.2;;;;;;;26.43;44.82813;945.0193;;;;
2022/07/13 06:05:28;;;;;;;1.4;1;;;;;;;27.06;40.68262;945.0242;;;;
2022/07/13 06:07:57;;;;;;;1.4;1.3;;;;;;;25.93;42.57813;944.9584;;;;
2022/07/13 06:10:22;;;;;;;1.2;1.1;;;;;;;25.65;44.08789;944.9622;;;;
2022/07/13 06:12:51;;;;;;;1.4;1.3;;;;;;;26.33;42.75781;944.9519;;;;
2022/07/13 06:15:16;;;;;;;1.3;0.9;;;;;;;27.08;40.98047;944.8597;;;;
2022/07/13 06:17:41;;;;;;;2.6;1.1;;;;;;;27.43;42.42383;944.8738;;;;
2022/07/13 06:20:14;;;;;;;1.7;1.1;;;;;;;28.2;39.18164;944.8641;;;;
2022/07/13 06:22:42;;;;;;;1.2;1.1;;;;;;;27.34;39.63965;944.8844;;;;
2022/07/13 06:25:07;;;;;;;1.2;1.1;;;;;;;27.81;37.92383;944.8537;;;;
2022/07/13 06:27:32;;;;;;;1.9;1.3;;;;;;;27.18;39.79199;944.937;;;;
2022/07/13 06:29:59;;;;;;;1.7;1;;;;;;;27.37;41.54102;944.8878;;;;
2022/07/13 06:32:24;;;;;;;0.9;0.9;;;;;;;28.13;40.625;944.8134;;;;
2022/07/13 06:34:51;;;;;;;1.5;0.9;;;;;;;29.14;37.40527;944.807;;;;
2022/07/13 06:37:16;;;;;;;1.3;1.1;;;;;;;28.53;39.89941;944.7581;;;;
2022/07/13 06:39:41;;;;;;;0.9;0.9;;;;;;;28.94;39.04395;944.7787;;;;
2022/07/13 06:42:12;;;;;;;2.1;1.2;;;;;;;29.75;37.45605;944.7402;;;;
2022/07/13 06:44:41;;;;;;;1.1;1;;;;;;;29.81;38.08105;944.7523;;;;
2022/07/13 06:47:06;;;;;;;1;1;;;;;;;31.09;34.52832;944.8242;;;;
2022/07/13 06:49:35;;;;;;;1.1;1;;;;;;;31.2;33.96289;944.7967;;;;
2022/07/13 06:52:00;;;;;;;1;0.9;;;;;;;30.27;33.79785;944.682;;;;
2022/07/13 06:54:33;;;;;;;1.2;1;;;;;;;29.33;35.74121;944.7006;;;;
2022/07/13 06:57:05;;;;;;;1.9;1;;;;;;;29.18;36.56348;944.7304;;;;
2022/07/13 06:59:33;;;;;;;1;1;;;;;;;29.25;36.05664;944.6813;;;;
2022/07/13 07:01:58;;;;;;;1.1;1;;;;;;;30.15;36.53418;944.6559;;;;
2022/07/13 07:04:29;;;;;;;1.2;1.1;;;;;;;30.94;33.69238;944.7177;;;;
2022/07/13 07:06:52;;;;;;;1.6;0.8;;;;;;;29.62;36.35938;944.6733;;;;
2022/07/13 07:09:19;;;;;;;1.1;1;;;;;;;31.63;32.6543;944.6925;;;;
2022/07/13 07:11:46;;;;;;;1.5;0.9;;;;;;;31.61;33.94629;944.6942;;;;
2022/07/13 07:14:17;;;;;;;0.8;0.8;;;;;;;32.14;31.71973;944.6224;;;;
2022/07/13 07:16:44;;;;;;;1.5;1.4;;;;;;;31.74;34.30273;944.5931;;;;
2022/07/13 07:19:14;;;;;;;1.2;1;;;;;;;32.04;32.54004;944.5084;;;;
2022/07/13 07:21:43;;;;;;;1.2;1.1;;;;;;;30.75;34.2998;944.5549;;;;
2022/07/13 07:24:08;;;;;;;1.2;0.8;;;;;;;33.04;32.13184;944.5096;;;;
2022/07/13 07:26:34;;;;;;;2.7;1;;;;;;;34.2;29.68457;944.5119;;;;
2022/07/13 07:28:59;;;;;;;0.9;0.9;;;;;;;34.35;30.39258;944.4778;;;;
2022/07/13 07:31:28;;;;;;;1;0.9;;;;;;;35.09;27.55762;944.455;;;;
2022/07/13 07:33:52;;;;;;;0.8;0.8;;;;;;;33.9;28.6416;944.3823;;;;
2022/07/13 07:36:19;;;;;;;1.1;1;;;;;;;34.01;28.88965;944.3531;;;;
2022/07/13 07:38:44;;;;;;;1.7;0.9;;;;;;;32.8;29.94141;944.3553;;;;
2022/07/13 07:41:13;;;;;;;2.2;0.9;;;;;;;32.92;29.44531;944.3575;;;;
2022/07/13 07:43:38;;;;;;;0.7;0.7;;;;;;;31.65;30.35645;944.3354;;;;
2022/07/13 07:46:06;;;;;;;0.9;0.9;;;;;;;32.62;29.66504;944.212;;;;
2022/07/13 07:48:37;;;;;;;2.2;1;;;;;;;31.83;30.54785;944.1942;;;;
2022/07/13 07:51:07;;;;;;;1;0.9;;;;;;;32.2;30.48926;944.1859;;;;
2022/07/13 07:53:32;;;;;;;1.7;0.9;;;;;;;33.21;29.65527;944.2058;;;;
2022/07/13 07:55:59;;;;;;;1;0.9;;;;;;;33.26;30.23633;944.1809;;;;
2022/07/13 07:58:24;;;;;;;3.4;0.9;;;;;;;33.09;30.33301;944.2192;;;;
2022/07/13 08:00:49;;;;;;;0.8;0.8;;;;;;;34.4;28.37207;944.166;;;;
2022/07/13 08:03:20;;;;;;;1.2;1.1;;;;;;;35.45;26.50488;944.1484;;;;
2022/07/13 08:05:52;;;;;;;1.4;1.2;;;;;;;34.78;28.14258;944.0881;;;;
2022/07/13 08:08:15;;;;;;;1.2;1.1;;;;;;;33.88;27.42578;944.0357;;;;
2022/07/13 08:10:48;;;;;;;1.1;1;;;;;;;34.52;25.5;944.0284;;;;
2022/07/13 08:13:16;;;;;;;1.3;1.2;;;;;;;33.21;28.68262;943.9881;;;;
2022/07/13 08:15:41;;;;;;;1.6;1;;;;;;;33.29;30.43066;943.9411;;;;
2022/07/13 08:18:07;;;;;;;0.8;0.8;;;;;;;34.12;25.89844;943.8819;;;;
2022/07/13 08:20:36;;;;;;;1.5;0.9;;;;;;;32.63;26.6543;943.7762;;;;
2022/07/13 08:23:01;;;;;;;1.2;1.1;;;;;;;31.84;29.71094;943.7506;;;;
2022/07/13 08:25:28;;;;;;;1.5;1.2;;;;;;;31.81;28.6416;943.7148;;;;
2022/07/13 08:27:53;;;;;;;1.1;0.9;;;;;;;33.04;28.67188;943.7222;;;;
2022/07/13 08:30:24;;;;;;;2;1;;;;;;;33.25;25.80078;943.6401;;;;
2022/07/13 08:32:48;;;;;;;0.9;0.8;;;;;;;32.81;25.2959;943.6889;;;;
2022/07/13 08:40:07;;;;;;;1.7;0.7;;;;;;;33.39;25.31641;943.6914;;;;
2022/07/13 08:42:36;;;;;;;0.9;0.7;;;;;;;34.92;22.63867;943.7255;;;;
2022/07/13 08:45:01;;;;;;;1;0.8;;;;;;;34.94;24.5459;943.6924;;;;
2022/07/13 08:47:29;;;;;;;1.8;0.9;;;;;;;34.09;24.66895;943.6926;;;;
2022/07/13 08:49:55;;;;;;;1;0.7;;;;;;;35.81;20.99121;943.6353;;;;
2022/07/13 08:52:20;;;;;;;0.7;0.7;;;;;;;35.93;22.53125;943.6914;;;;
2022/07/13 08:54:52;;;;;;;0.9;0.9;;;;;;;34.77;21.94434;943.6717;;;;
2022/07/13 08:57:19;;;;;;;0.9;0.9;;;;;;;33.58;24.95313;943.6356;;;;
2022/07/13 08:59:46;;;;;;;0.7;0.7;;;;;;;33.42;24.8125;943.5917;;;;
2022/07/13 09:02:11;;;;;;;2.2;1;;;;;;;32.99;25.11328;943.6;;;;
2022/07/13 09:04:39;;;;;;;1.4;0.7;;;;;;;32.79;24.61035;943.5831;;;;
2022/07/13 09:07:06;;;;;;;2.7;0.8;;;;;;;32.95;25.55566;943.5108;;;;
2022/07/13 09:09:31;;;;;;;0.9;0.7;;;;;;;33.03;23.62598;943.4981;;;;
2022/07/13 09:11:54;;;;;;;1.7;0.7;;;;;;;33.06;24.02441;943.5554;;;;
2022/07/13 09:14:19;;;;;;;0.7;0.5;;;;;;;32.38;24.56445;943.5028;;;;
2022/07/13 09:16:51;;;;;;;0.6;0.4;;;;;;;32.78;22.40137;943.5374;;;;
2022/07/13 09:19:14;;;;;;;1;0.5;;;;;;;32.73;24.52344;943.5342;;;;
2022/07/13 09:21:39;;;;;;;2.4;0.6;;;;;;;34.42;24.30176;943.5781;;;;
2022/07/13 09:24:06;;;;;;;0.6;0.6;;;;;;;33.91;23.82813;943.5505;;;;
2022/07/13 09:26:31;;;;;;;1.4;0.8;;;;;;;33.99;26.69727;943.5345;;;;
2022/07/13 09:28:59;;;;;;;0.7;0.7;;;;;;;33.19;27.92383;943.5807;;;;
2022/07/13 09:31:24;;;;;;;0.8;0.7;;;;;;;32.97;28.89551;943.5776;;;;
2022/07/13 09:33:52;;;;;;;1.1;0.8;;;;;;;32.6;32.16016;943.6205;;;;
2022/07/13 09:36:17;;;;;;;0.8;0.8;;;;;;;32.51;29.47852;943.6027;;;;
2022/07/13 09:38:44;;;;;;;3;1;;;;;;;33.15;31.07031;943.6295;;;;
2022/07/13 09:41:09;;;;;;;1;1;;;;;;;34.09;29.43652;943.6497;;;;
2022/07/13 09:46:10;;;;;;;1.3;0.9;;;;;;;34.27;30.03809;943.6291;;;;
2022/07/13 09:48:29;;;;;;;1.6;0.8;;;;;;;32.71;32.43164;943.6086;;;;
2022/07/13 09:50:54;;;;;;;3.6;0.8;;;;;;;32.61;33.76855;943.6291;;;;
2022/07/13 09:53:21;;;;;;;2.3;0.8;;;;;;;33.46;31.96875;943.644;;;;
2022/07/13 09:55:47;;;;;;;0.8;0.8;;;;;;;32.53;32.19141;943.625;;;;
2022/07/13 09:58:11;;;;;;;1.8;1;;;;;;;32.29;33.18164;943.6558;;;;
2022/07/13 10:00:39;;;;;;;0.7;0.7;;;;;;;32.57;34.55762;943.716;;;;
2022/07/13 10:03:04;;;;;;;0.8;0.8;;;;;;;32.68;32.21387;943.7017;;;;
2022/07/13 10:05:34;;;;;;;0.8;0.8;;;;;;;31.6;33.61035;943.73;;;;
2022/07/13 10:07:59;;;;;;;1;0.7;;;;;;;31.98;32.30762;943.7177;;;;
2022/07/13 10:10:30;;;;;;;1.4;0.8;;;;;;;31.87;35.3916;943.7273;;;;
2022/07/13 10:13:05;;;;;;;1.3;0.8;;;;;;;30.94;38.40332;943.7715;;;;
2022/07/13 10:15:31;;;;;;;1.3;0.7;;;;;;;30.86;36.30469;943.6591;;;;
2022/07/13 10:17:56;;;;;;;1.4;0.8;;;;;;;30.92;37.44531;943.6685;;;;
2022/07/13 10:20:27;;;;;;;4.4;1;;;;;;;31.11;36.82715;943.6602;;;;
2022/07/13 10:22:52;;;;;;;0.9;0.9;;;;;;;31.06;33.91699;943.7126;;;;
2022/07/13 10:25:22;;;;;;;1;0.9;;;;;;;31.6;34.16113;943.73;;;;
2022/07/13 10:27:47;;;;;;;0.8;0.8;;;;;;;32.01;33.40137;943.7196;;;;
2022/07/13 10:30:12;;;;;;;0.8;0.8;;;;;;;31.98;31.81641;943.6995;;;;
2022/07/13 10:32:41;;;;;;;2.5;1;;;;;;;32.49;31.79297;943.6612;;;;
2022/07/13 10:35:07;;;;;;;0.9;0.9;;;;;;;32.35;31.56641;943.7008;;;;
2022/07/13 10:37:32;;;;;;;0.8;0.7;;;;;;;31.37;35.54395;943.6323;;;;
2022/07/13 10:39:58;;;;;;;1.1;0.8;;;;;;;31.44;34.5918;943.6057;;;;
2022/07/13 10:42:23;;;;;;;1.6;0.8;;;;;;;31.54;32.45605;943.6015;;;;
2022/07/13 10:44:50;;;;;;;1.8;0.8;;;;;;;31.61;33.31152;943.5834;;;;
2022/07/13 10:47:19;;;;;;;0.9;0.9;;;;;;;31.97;32.11523;943.5608;;;;
2022/07/13 10:49:45;;;;;;;0.7;0.7;;;;;;;31.86;34.15625;943.5065;;;;
2022/07/13 10:52:07;;;;;;;1.7;0.9;;;;;;;31.84;35.08887;943.5193;;;;
2022/07/13 10:54:32;;;;;;;2;0.9;;;;;;;31.79;34.83398;943.4917;;;;
2022/07/13 10:56:58;;;;;;;1.3;0.8;;;;;;;32.13;32.69043;943.4972;;;;
2022/07/13 10:59:23;;;;;;;0.8;0.8;;;;;;;31.39;33.94141;943.5345;;;;
2022/07/13 11:01:50;;;;;;;0.8;0.8;;;;;;;31.4;31.18945;943.4551;;;;
2022/07/13 11:04:46;;;;;;;1.9;0.9;;;;;;;31.31;34.00781;943.5215;;;;
2022/07/13 11:07:21;;;;;;;1.6;0.7;;;;;;;31.54;33.90527;943.4766;;;;
2022/07/13 11:09:49;;;;;;;0.7;0.7;;;;;;;31.4;34.8877;943.4739;;;;
2022/07/13 11:12:16;;;;;;;0.8;0.8;;;;;;;31.55;32.73242;943.4807;;;;
2022/07/13 11:14:42;;;;;;;2;0.8;;;;;;;32.02;33.58105;943.4523;;;;
2022/07/13 11:17:07;;;;;;;1;0.9;;;;;;;32.06;30.87598;943.468;;;;
2022/07/13 11:19:32;;;;;;;0.8;0.8;;;;;;;32.13;32.71484;943.5061;;;;
2022/07/13 11:21:57;;;;;;;0.7;0.7;;;;;;;32.33;31.80566;943.4661;;;;
2022/07/13 11:26:51;;;;;;;0.8;0.8;;;;;;;32.26;31.41699;943.3979;;;;
2022/07/13 11:29:15;;;;;;;0.9;0.8;;;;;;;32.33;31.75781;943.4183;;;;
2022/07/13 11:31:42;;;;;;;3.9;0.8;;;;;;;32.58;30.95898;943.3858;;;;
2022/07/13 11:34:07;;;;;;;0.7;0.7;;;;;;;32.44;31.2373;943.3756;;;;
2022/07/13 11:36:36;;;;;;;0.8;0.7;;;;;;;32.5;30.64063;943.3066;;;;
2022/07/13 11:39:00;;;;;;;4;0.8;;;;;;;32.23;30.75488;943.2933;;;;
2022/07/13 11:41:27;;;;;;;1.4;0.8;;;;;;;32.06;30.87598;943.3214;;;;
2022/07/13 11:43:53;;;;;;;2.7;1;;;;;;;32.44;31.53711;943.2883;;;;
2022/07/13 11:46:25;;;;;;;1.1;0.9;;;;;;;32.3;32.03125;943.3204;;;;
2022/07/13 11:48:50;;;;;;;1.5;0.8;;;;;;;32.08;35.63574;943.2382;;;;
2022/07/13 11:51:23;;;;;;;0.8;0.7;;;;;;;31.94;33.37207;943.2876;;;;
2022/07/13 11:53:52;;;;;;;1.3;0.8;;;;;;;32.19;31.65137;943.3201;;;;
2022/07/13 11:56:31;;;;;;;1.2;0.7;;;;;;;32.14;31.4209;943.2589;;;;
2022/07/13 11:59:01;;;;;;;0.9;0.7;;;;;;;31.84;31.54395;943.29;;;;
2022/07/13 12:01:25;;;;;;;1.9;0.8;;;;;;;31.94;31.19141;943.2654;;;;
2022/07/13 12:03:51;;;;;;;2.2;0.8;;;;;;;31.96;30.67676;943.25;;;;
2022/07/13 12:06:16;;;;;;;2.8;0.7;;;;;;;31.38;33.09082;943.2177;;;;
2022/07/13 12:08:41;;;;;;;1;0.8;;;;;;;31.56;33.52344;943.1934;;;;
2022/07/13 12:11:11;;;;;;;0.8;0.8;;;;;;;31.77;31.43066;943.1383;;;;
2022/07/13 12:13:41;;;;;;;1.4;0.7;;;;;;;31.27;37.37793;943.1686;;;;
2022/07/13 12:16:12;;;;;;;0.8;0.8;;;;;;;31.29;33.13281;943.0767;;;;
2022/07/13 12:18:40;;;;;;;1.1;0.8;;;;;;;31.01;34.3916;943.0955;;;;
2022/07/13 12:21:04;;;;;;;1;0.7;;;;;;;31.33;32.86035;943.0995;;;;
2022/07/13 12:23:31;;;;;;;0.8;0.8;;;;;;;31.23;33.24805;943.0826;;;;
2022/07/13 12:25:55;;;;;;;0.8;0.7;;;;;;;30.86;34.8584;943.0692;;;;
2022/07/13 12:28:21;;;;;;;1.7;0.8;;;;;;;30.99;35.63281;943.0109;;;;
2022/07/13 12:30:46;;;;;;;1.2;0.7;;;;;;;30.94;36.59766;943.0325;;;;
2022/07/13 12:33:13;;;;;;;1;0.7;;;;;;;30.78;34.00293;942.9838;;;;
2022/07/13 12:35:39;;;;;;;0.8;0.8;;;;;;;30.51;34.52051;942.9797;;;;
2022/07/13 12:38:05;;;;;;;1.3;0.7;;;;;;;30.51;35.18945;942.9073;;;;
2022/07/13 12:40:33;;;;;;;0.7;0.7;;;;;;;30.4;34.5;942.9402;;;;
2022/07/13 12:42:57;;;;;;;1.8;0.7;;;;;;;30.28;34.61035;942.9285;;;;
2022/07/13 12:45:28;;;;;;;1;0.6;;;;;;;30.15;33.97949;942.8801;;;;
2022/07/13 12:47:59;;;;;;;0.9;0.9;;;;;;;30.11;33.92969;942.8725;;;;
2022/07/13 12:50:25;;;;;;;0.9;0.6;;;;;;;29.87;35.10352;942.812;;;;
2022/07/13 12:52:51;;;;;;;1.9;0.9;;;;;;;29.74;36.62012;942.7859;;;;
2022/07/13 12:55:20;;;;;;;1.2;0.9;;;;;;;29.81;37.85449;942.8107;;;;
2022/07/13 12:57:45;;;;;;;0.9;0.9;;;;;;;29.79;34.72852;942.8166;;;;
2022/07/13 13:00:11;;;;;;;0.8;0.8;;;;;;;29.96;35.30176;942.8464;;;;
2022/07/13 13:02:42;;;;;;;0.8;0.8;;;;;;;29.88;37.21582;942.7674;;;;
2022/07/13 13:05:15;;;;;;;0.7;0.7;;;;;;;30.07;35.57324;942.7277;;;;
2022/07/13 13:07:40;;;;;;;1.2;0.9;;;;;;;30.29;33.74023;942.706;;;;
2022/07/13 13:10:05;;;;;;;0.7;0.6;;;;;;;30.52;35.7998;942.647;;;;
2022/07/13 13:12:36;;;;;;;1.7;1;;;;;;;30.68;36.82813;942.5779;;;;
2022/07/13 13:15:03;;;;;;;1.1;0.8;;;;;;;30.78;34.56543;942.5808;;;;
2022/07/13 13:17:29;;;;;;;0.9;0.7;;;;;;;30.68;36.14648;942.548;;;;
2022/07/13 13:19:53;;;;;;;1;0.9;;;;;;;29.89;37.28906;942.5399;;;;
2022/07/13 13:22:19;;;;;;;1.6;0.8;;;;;;;30.15;37.45313;942.4777;;;;
2022/07/13 13:24:45;;;;;;;2.4;0.9;;;;;;;30.31;34.86328;942.4342;;;;
2022/07/13 13:27:12;;;;;;;1.1;1;;;;;;;30.43;34.22754;942.4196;;;;
2022/07/13 13:32:02;;;;;;;0.7;0.7;;;;;;;30.78;33.39355;942.4088;;;;
2022/07/13 13:34:27;;;;;;;0.9;0.6;;;;;;;30.8;32.63086;942.3447;;;;
2022/07/13 13:36:54;;;;;;;1.1;0.7;;;;;;;30.48;35.6416;942.3306;;;;
2022/07/13 13:39:42;;;;;;;0.7;0.7;;;;;;;30.16;34.42285;942.3627;;;;
2022/07/13 13:41:49;;;;;;;0.6;0.6;;;;;;;29.88;34.85449;942.3247;;;;
2022/07/13 13:44:14;;;;;;;0.7;0.7;;;;;;;29.63;36.94629;942.3102;;;;
2022/07/13 13:46:42;;;;;;;2.5;0.7;;;;;;;29.71;34.60352;942.2689;;;;
2022/07/13 13:49:11;;;;;;;3.5;0.7;;;;;;;29.68;35.53125;942.2316;;;;
2022/07/13 13:51:40;;;;;;;2.3;0.9;;;;;;;29.77;33.82031;942.2266;;;;
2022/07/13 13:54:09;;;;;;;1.4;0.7;;;;;;;29.77;34.24902;942.2111;;;;
2022/07/13 13:56:41;;;;;;;2.7;0.7;;;;;;;29.76;35.0957;942.188;;;;
2022/07/13 13:59:10;;;;;;;1.9;1;;;;;;;29.76;34.86914;942.2166;;;;
2022/07/13 14:01:42;;;;;;;0.8;0.8;;;;;;;29.69;34.25488;942.1731;;;;
2022/07/13 14:04:07;;;;;;;1;0.8;;;;;;;29.69;34.56543;942.1203;;;;
2022/07/13 14:06:39;;;;;;;2.3;0.8;;;;;;;29.74;35.96484;942.1288;;;;
2022/07/13 14:09:00;;;;;;;1.2;0.7;;;;;;;29.79;35.03906;942.0884;;;;
2022/07/13 14:11:27;;;;;;;1;0.8;;;;;;;29.77;34.85742;942.1816;;;;
2022/07/13 14:13:52;;;;;;;1.1;0.6;;;;;;;29.74;33.85352;942.1807;;;;
2022/07/13 14:16:18;;;;;;;1.4;0.9;;;;;;;29.74;34.05664;942.2244;;;;
2022/07/13 14:18:43;;;;;;;0.9;0.6;;;;;;;29.79;34.90723;942.1672;;;;
2022/07/13 14:21:08;;;;;;;0.7;0.7;;;;;;;29.82;33.99121;942.1808;;;;
2022/07/13 14:23:36;;;;;;;6.1;1.4;;;;;;;29.82;35.43457;942.2012;;;;
2022/07/13 14:26:01;;;;;;;4.3;1.1;;;;;;;29.89;35.72656;942.1696;;;;
2022/07/13 14:28:28;;;;;;;1.6;0.7;;;;;;;29.9;35.81055;942.1707;;;;
2022/07/13 14:30:53;;;;;;;2.4;0.8;;;;;;;30.02;35.05566;942.1314;;;;
2022/07/13 14:33:22;;;;;;;1;0.7;;;;;;;30.1;34.3457;942.1373;;;;
2022/07/13 14:35:47;;;;;;;0.5;0.5;;;;;;;30.22;34.60645;942.1141;;;;
2022/07/13 14:38:16;;;;;;;3.7;0.6;;;;;;;30.16;31.85645;942.0865;;;;
2022/07/13 14:40:46;;;;;;;3.7;0.7;;;;;;;30.18;33.05078;942.0627;;;;
2022/07/13 14:43:11;;;;;;;1.9;0.6;;;;;;;30.24;32.80566;942.0425;;;;
2022/07/13 14:45:39;;;;;;;0.5;0.5;;;;;;;30.19;32.27539;942.0522;;;;
2022/07/13 14:48:04;;;;;;;0.7;0.6;;;;;;;30.24;31.71875;942.0139;;;;
2022/07/13 14:50:34;;;;;;;2.2;0.7;;;;;;;30.21;31.16699;942.0178;;;;
2022/07/13 14:52:59;;;;;;;1.7;0.6;;;;;;;30.2;31.53711;941.9348;;;;
2022/07/13 14:55:27;;;;;;;0.9;0.6;;;;;;;30.26;31.56543;941.9673;;;;
2022/07/13 14:57:52;;;;;;;1.9;0.7;;;;;;;30.31;32.47559;942.0012;;;;
2022/07/13 15:00:20;;;;;;;2.1;1.1;;;;;;;30.48;33.6582;941.9863;;;;
2022/07/13 15:02:53;;;;;;;1.3;0.6;;;;;;;30.32;31.78418;941.9211;;;;
2022/07/13 15:05:19;;;;;;;3;0.9;;;;;;;30.4;33.7959;941.9661;;;;
2022/07/13 15:07:50;;;;;;;3.3;1.1;;;;;;;30.31;30.94727;941.9727;;;;
2022/07/13 15:10:21;;;;;;;1.7;0.6;;;;;;;30.18;33.37402;942.0048;;;;
2022/07/13 15:12:50;;;;;;;0.9;0.5;;;;;;;29.85;32.49023;942.0325;;;;
2022/07/13 15:15:16;;;;;;;3.3;0.6;;;;;;;29.68;30.95215;941.9587;;;;
2022/07/13 15:17:46;;;;;;;0.6;0.6;;;;;;;29.7;30.75;941.9733;;;;
2022/07/13 15:20:17;;;;;;;0.6;0.6;;;;;;;29.2;30.88281;942.0099;;;;
2022/07/13 15:22:45;;;;;;;1;0.4;;;;;;;29.19;33.59863;941.9816;;;;
2022/07/13 15:25:11;;;;;;;1.6;0.6;;;;;;;29.03;30.65723;941.9473;;;;
2022/07/13 15:27:42;;;;;;;0.5;0.5;;;;;;;29.04;31.99219;941.9359;;;;
2022/07/13 15:30:14;;;;;;;0.5;0.5;;;;;;;29.23;30.44434;942.0023;;;;
2022/07/13 15:32:38;;;;;;;0.4;0.4;;;;;;;29.22;30.34961;941.9536;;;;
2022/07/13 15:35:06;;;;;;;2.3;0.7;;;;;;;29.23;30.6709;941.9271;;;;
2022/07/13 15:37:31;;;;;;;0.6;0.5;;;;;;;29.24;31.18457;941.9233;;;;
2022/07/13 15:39:59;;;;;;;0.8;0.5;;;;;;;29.19;31.97852;941.9597;;;;
2022/07/13 15:42:30;;;;;;;0.4;0.4;;;;;;;29.03;28.95508;941.9355;;;;
2022/07/13 15:45:00;;;;;;;0.4;0.4;;;;;;;28.91;30.30371;941.9835;;;;
2022/07/13 15:47:25;;;;;;;0.5;0.5;;;;;;;28.98;31.05859;941.9866;;;;
2022/07/13 15:49:52;;;;;;;2.6;0.5;;;;;;;28.9;31.14844;941.942;;;;
2022/07/13 15:52:17;;;;;;;1.2;0.6;;;;;;;29.1;31.4834;941.9861;;;;
2022/07/13 15:54:46;;;;;;;0.6;0.6;;;;;;;29.23;31.06348;941.949;;;;
2022/07/13 15:57:11;;;;;;;0.6;0.6;;;;;;;29.49;31.3916;941.9777;;;;
2022/07/13 15:59:36;;;;;;;1.3;0.6;;;;;;;29.5;32.47656;941.9666;;;;
2022/07/13 16:02:03;;;;;;;1;0.6;;;;;;;29.59;30.80273;941.9572;;;;
2022/07/13 16:04:26;;;;;;;1.5;0.6;;;;;;;29.53;31.47852;942.0318;;;;
2022/07/13 16:06:57;;;;;;;1.3;0.5;;;;;;;29.5;29.74805;942.0388;;;;
2022/07/13 16:09:22;;;;;;;0.4;0.4;;;;;;;29.43;28.7666;941.9625;;;;
2022/07/13 16:11:52;;;;;;;0.6;0.5;;;;;;;29.29;29.51953;941.9426;;;;
2022/07/13 16:14:19;;;;;;;0.5;0.5;;;;;;;29.31;28.66309;942.0179;;;;
2022/07/13 16:16:50;;;;;;;0.9;0.7;;;;;;;29.27;29.2793;942.0228;;;;
2022/07/13 16:19:18;;;;;;;2.1;0.5;;;;;;;29.14;29.2832;942.0266;;;;
2022/07/13 16:21:43;;;;;;;0.6;0.5;;;;;;;29.14;29.49707;942.0217;;;;
2022/07/13 16:24:04;;;;;;;1.7;0.8;;;;;;;29.17;29.07129;941.9805;;;;
2022/07/13 16:26:30;;;;;;;1.7;0.6;;;;;;;29.12;28.52051;942.0136;;;;
2022/07/13 16:28:56;;;;;;;0.5;0.5;;;;;;;29.17;29.10645;942.0002;;;;
2022/07/13 16:31:21;;;;;;;0.4;0.4;;;;;;;29.19;29.65625;942.0597;;;;
2022/07/13 16:33:52;;;;;;;0.5;0.5;;;;;;;29.19;29.05957;941.9984;;;;
2022/07/13 16:36:16;;;;;;;0.5;0.5;;;;;;;29.11;28.81738;942.0034;;;;
2022/07/13 16:38:45;;;;;;;0.5;0.4;;;;;;;29.05;28.9209;942.0481;;;;
2022/07/13 16:41:10;;;;;;;0.8;0.5;;;;;;;29.03;29.00293;942.0087;;;;